Time;durP1;ratioP1;P1;durP2;ratioP2;P2;SDS_P1;SDS_P2;PMS_P1;PMS_P2;Temp;Humidity;BMP_temperature;BMP_pressure;BME280_temperature;BME280_humidity;BME280_pressure;Samples;Min_cycle;Max_cycle;Signal;HPM_P1;HPM_P2
2021/05/01 00:03:51;;;;;;;15.18;7.15;;;8.50;83.00;;;;;;5016755;28;20097;-87
2021/05/01 00:09:40;;;;;;;17.58;10.05;;;8.50;83.30;;;;;;5016684;28;20418;-87
2021/05/01 00:15:28;;;;;;;20.02;11.20;;;8.60;83.60;;;;;;5016709;28;20484;-86
2021/05/01 00:21:18;;;;;;;19.52;10.35;;;8.70;83.70;;;;;;5016634;28;20028;-87
2021/05/01 00:27:06;;;;;;;19.30;10.77;;;8.80;83.70;;;;;;5016581;28;20421;-87
2021/05/01 00:36:50;;;;;;;19.25;10.13;;;8.70;83.30;;;;;;5016420;28;20036;-87
2021/05/01 00:42:39;;;;;;;19.40;10.52;;;8.70;83.30;;;;;;5016284;28;20114;-87
2021/05/01 00:48:27;;;;;;;21.67;10.93;;;8.70;83.60;;;;;;5015838;28;20145;-86
2021/05/01 00:54:15;;;;;;;19.73;11.20;;;8.60;83.70;;;;;;5016096;28;20033;-86
2021/05/01 01:00:06;;;;;;;18.70;10.80;;;8.70;83.80;;;;;;5015970;28;20390;-86
2021/05/01 01:05:54;;;;;;;18.08;9.95;;;8.70;83.70;;;;;;5015526;28;20033;-87
2021/05/01 01:11:44;;;;;;;18.52;10.55;;;8.70;84.00;;;;;;5015746;28;20025;-86
2021/05/01 01:17:32;;;;;;;18.40;10.70;;;8.70;83.90;;;;;;5015409;28;20040;-87
2021/05/01 01:23:21;;;;;;;17.15;8.38;;;8.80;84.00;;;;;;5015560;28;20041;-87
2021/05/01 01:29:13;;;;;;;18.42;10.50;;;8.70;83.80;;;;;;5016699;28;20025;-87
2021/05/01 01:38:56;;;;;;;18.17;10.48;;;8.70;84.00;;;;;;5015115;28;20081;-85
2021/05/01 01:44:44;;;;;;;18.90;10.68;;;8.70;84.30;;;;;;5015095;28;20072;-85
2021/05/01 01:50:34;;;;;;;21.17;10.80;;;8.80;84.10;;;;;;5015028;28;20033;-86
2021/05/01 01:56:24;;;;;;;18.55;10.73;;;8.80;84.20;;;;;;5014919;28;20057;-85
2021/05/01 02:02:12;;;;;;;17.48;9.75;;;8.80;84.40;;;;;;5014531;28;20085;-86
2021/05/01 02:08:04;;;;;;;19.58;11.10;;;8.80;84.10;;;;;;5014696;28;20044;-86
2021/05/01 02:13:57;;;;;;;17.38;10.32;;;8.80;84.30;;;;;;5014600;28;20029;-86
2021/05/01 02:19:45;;;;;;;17.83;9.85;;;8.80;84.40;;;;;;5014169;28;20061;-86
2021/05/01 02:25:35;;;;;;;19.42;11.05;;;8.80;84.30;;;;;;5014208;28;20540;-87
2021/05/01 02:31:24;;;;;;;21.75;12.27;;;8.80;84.50;;;;;;5014456;28;20057;-87
2021/05/01 02:41:06;;;;;;;19.75;11.10;;;8.90;84.50;;;;;;5014385;28;20056;-87
2021/05/01 02:46:55;;;;;;;19.48;10.98;;;8.80;84.30;;;;;;5014051;28;20032;-87
2021/05/01 02:52:46;;;;;;;21.88;12.18;;;8.80;84.60;;;;;;5013675;28;20037;-86
2021/05/01 02:58:35;;;;;;;18.83;10.75;;;8.80;84.60;;;;;;5013893;28;20458;-87
2021/05/01 03:04:24;;;;;;;23.55;11.45;;;8.80;84.50;;;;;;5013738;28;20037;-85
2021/05/01 03:10:15;;;;;;;25.15;13.23;;;8.80;84.30;;;;;;5014629;28;20033;-85
2021/05/01 03:16:04;;;;;;;21.50;11.75;;;8.80;84.90;;;;;;5021909;28;20058;-85
2021/05/01 03:21:53;;;;;;;22.00;13.00;;;8.90;84.90;;;;;;5018811;28;20048;-85
2021/05/01 03:27:42;;;;;;;21.70;12.73;;;8.90;85.00;;;;;;5018005;28;20080;-86
2021/05/01 03:33:31;;;;;;;23.02;12.15;;;9.00;84.90;;;;;;5017980;28;20069;-86
2021/05/01 03:43:14;;;;;;;19.45;11.30;;;8.90;84.60;;;;;;5017724;28;20044;-85
2021/05/01 03:49:03;;;;;;;20.88;12.68;;;8.90;84.50;;;;;;5017164;28;20114;-85
2021/05/01 03:54:52;;;;;;;22.52;12.32;;;8.90;84.80;;;;;;5017179;28;20033;-86
2021/05/01 04:00:41;;;;;;;22.80;12.57;;;9.00;85.20;;;;;;5017153;28;20057;-86
2021/05/01 04:06:30;;;;;;;20.58;12.48;;;9.10;85.20;;;;;;5017078;28;20077;-86
2021/05/01 04:12:19;;;;;;;20.63;11.90;;;9.10;85.10;;;;;;5022964;28;20084;-85
2021/05/01 04:18:14;;;;;;;21.45;11.85;;;9.10;84.90;;;;;;5016622;28;20527;-84
2021/05/01 04:24:04;;;;;;;21.83;12.57;;;9.20;85.50;;;;;;5016386;28;20057;-84
2021/05/01 04:29:53;;;;;;;21.90;12.35;;;9.30;85.40;;;;;;5016387;28;20053;-84
2021/05/01 04:35:42;;;;;;;24.05;12.77;;;9.40;85.50;;;;;;5016270;28;20105;-84
2021/05/01 04:45:25;;;;;;;19.60;11.05;;;9.50;85.20;;;;;;5016729;28;20037;-86
2021/05/01 04:51:13;;;;;;;22.85;13.45;;;9.50;85.40;;;;;;5016251;28;20500;-86
2021/05/01 04:57:02;;;;;;;20.35;12.18;;;9.60;85.30;;;;;;5016085;28;20058;-87
2021/05/01 05:02:50;;;;;;;22.95;13.65;;;9.50;84.80;;;;;;5016008;28;20383;-87
2021/05/01 05:08:38;;;;;;;21.15;13.00;;;9.50;85.30;;;;;;5015668;28;20080;-87
2021/05/01 05:14:28;;;;;;;22.85;12.43;;;9.40;84.70;;;;;;5015617;28;20435;-87
2021/05/01 05:20:16;;;;;;;21.75;12.55;;;9.40;85.10;;;;;;5015569;28;20504;-87
2021/05/01 05:26:05;;;;;;;22.10;12.82;;;9.50;85.20;;;;;;5015370;28;20041;-87
2021/05/01 05:31:55;;;;;;;21.02;12.30;;;9.40;85.20;;;;;;5015149;28;20028;-87
2021/05/01 05:37:43;;;;;;;25.40;14.25;;;9.50;85.50;;;;;;5015153;28;20033;-85
2021/05/01 05:47:35;;;;;;;25.80;13.88;;;9.70;85.20;;;;;;5015020;28;20098;-86
2021/05/01 05:53:24;;;;;;;21.08;12.38;;;9.70;85.50;;;;;;5014757;28;20092;-88
2021/05/01 05:59:13;;;;;;;23.23;12.43;;;9.80;85.40;;;;;;5014579;28;20501;-87
2021/05/01 06:05:29;;;;;;;25.55;14.23;;;9.80;85.10;;;;;;5014545;28;20085;-89
2021/05/01 06:11:19;;;;;;;22.25;13.48;;;9.80;85.00;;;;;;5014370;28;20437;-84
2021/05/01 06:17:12;;;;;;;20.77;12.00;;;9.70;85.10;;;;;;5014402;28;20072;-88
2021/05/01 06:23:04;;;;;;;24.77;15.25;;;9.80;85.30;;;;;;5014784;28;20037;-89
2021/05/01 06:28:52;;;;;;;23.50;13.65;;;10.00;86.60;;;;;;5015742;28;20557;-83
2021/05/01 06:34:48;;;;;;;21.30;12.95;;;10.50;86.90;;;;;;5014952;28;20072;-83
2021/05/01 06:40:42;;;;;;;21.50;12.43;;;10.50;85.20;;;;;;5014732;28;20053;-83
2021/05/01 06:50:35;;;;;;;22.42;11.80;;;10.40;85.60;;;;;;5018418;28;20049;-86
2021/05/01 06:56:27;;;;;;;22.17;13.13;;;10.60;86.10;;;;;;5014851;28;20026;-87
2021/05/01 07:02:15;;;;;;;21.80;13.20;;;10.70;86.00;;;;;;5013519;28;20037;-88
2021/05/01 07:08:06;;;;;;;21.67;12.73;;;10.90;86.30;;;;;;5014031;28;20486;-89
2021/05/01 07:13:58;;;;;;;24.95;13.98;;;11.20;86.50;;;;;;5014321;28;20061;-88
2021/05/01 07:19:47;;;;;;;20.52;11.20;;;11.40;86.10;;;;;;5016366;28;20096;-86
2021/05/01 07:25:35;;;;;;;19.02;11.50;;;11.40;86.20;;;;;;5025525;28;20192;-89
2021/05/01 07:31:30;;;;;;;19.00;12.82;;;12.00;88.10;;;;;;5024008;28;20056;-87
2021/05/01 07:37:25;;;;;;;18.80;12.35;;;12.70;87.40;;;;;;5015494;28;20030;-87
2021/05/01 07:43:18;;;;;;;16.83;11.27;;;13.00;87.00;;;;;;5013668;28;20033;-85
2021/05/01 07:53:09;;;;;;;18.15;10.50;;;13.40;86.70;;;;;;5013855;28;20088;-86
2021/05/01 07:59:00;;;;;;;18.45;10.70;;;13.90;87.50;;;;;;5014565;28;20045;-87
2021/05/01 08:04:48;;;;;;;18.58;12.30;;;14.30;87.70;;;;;;5013622;28;20100;-88
2021/05/01 08:10:36;;;;;;;15.82;9.35;;;15.10;87.80;;;;;;5013134;28;20041;-85
2021/05/01 08:16:24;;;;;;;16.35;10.55;;;15.10;85.20;;;;;;5016938;28;20037;-87
2021/05/01 08:22:11;;;;;;;15.98;10.70;;;15.00;85.10;;;;;;5016843;28;20076;-84
2021/05/01 08:28:00;;;;;;;17.20;11.05;;;15.30;86.00;;;;;;5016429;28;20029;-88
2021/05/01 08:33:48;;;;;;;17.98;12.38;;;15.60;86.60;;;;;;5016961;28;20033;-89
2021/05/01 08:39:37;;;;;;;18.52;11.15;;;16.00;85.30;;;;;;5016593;28;20041;-87
2021/05/01 08:45:27;;;;;;;19.67;11.57;;;15.80;83.10;;;;;;5016518;28;20124;-87
2021/05/01 08:55:10;;;;;;;18.67;11.88;;;15.30;82.90;;;;;;5015956;28;20068;-87
2021/05/01 09:00:59;;;;;;;17.70;11.13;;;15.10;83.70;;;;;;5016415;28;20128;-88
2021/05/01 09:06:47;;;;;;;17.30;11.90;;;15.50;84.40;;;;;;5015895;28;20064;-89
2021/05/01 09:12:47;;;;;;;19.13;12.73;;;16.00;85.30;;;;;;5015925;28;20037;-87
2021/05/01 09:18:55;;;;;;;16.85;11.27;;;17.00;86.40;;;;;;5015699;28;20096;-87
2021/05/01 09:24:44;;;;;;;17.45;10.95;;;17.70;85.60;;;;;;5014977;28;20032;-87
2021/05/01 09:30:35;;;;;;;16.50;11.73;;;18.20;84.30;;;;;;5016149;28;20080;-84
2021/05/01 09:36:25;;;;;;;16.83;12.27;;;18.30;83.00;;;;;;5017467;28;20064;-88
2021/05/01 09:42:18;;;;;;;17.88;11.48;;;18.60;82.10;;;;;;5016495;28;20108;-87
2021/05/01 09:48:19;;;;;;;15.50;9.65;;;18.10;80.70;;;;;;5015302;28;20050;-84
2021/05/01 09:58:20;;;;;;;15.68;10.20;;;17.70;80.70;;;;;;5015631;28;20548;-87
2021/05/01 10:04:16;;;;;;;17.48;11.27;;;17.20;80.20;;;;;;5015206;28;20041;-88
2021/05/01 10:10:06;;;;;;;15.32;9.75;;;17.00;80.30;;;;;;5014592;28;20111;-87
2021/05/01 10:15:55;;;;;;;18.15;11.52;;;16.80;80.00;;;;;;5014402;28;20500;-86
2021/05/01 10:21:47;;;;;;;18.10;11.95;;;16.40;80.30;;;;;;5014462;28;20165;-86
2021/05/01 10:27:44;;;;;;;17.10;11.20;;;16.30;80.00;;;;;;5014220;28;20065;-86
2021/05/01 10:33:34;;;;;;;25.10;15.48;;;16.50;80.10;;;;;;5014490;28;20072;-85
2021/05/01 10:39:22;;;;;;;16.50;11.00;;;16.40;80.20;;;;;;5013952;28;20556;-86
2021/05/01 10:45:11;;;;;;;18.25;12.00;;;16.60;79.30;;;;;;5014001;28;20025;-87
2021/05/01 10:51:09;;;;;;;15.52;10.25;;;16.70;80.90;;;;;;5013768;28;20425;-86
2021/05/01 11:01:01;;;;;;;15.40;10.20;;;17.40;80.30;;;;;;5014562;28;20101;-86
2021/05/01 11:06:58;;;;;;;15.32;10.48;;;17.70;79.90;;;;;;5013611;28;20084;-86
2021/05/01 11:12:52;;;;;;;15.18;9.57;;;18.10;78.80;;;;;;5013891;28;20061;-87
2021/05/01 11:18:46;;;;;;;16.17;10.18;;;17.70;78.00;;;;;;5013581;28;20528;-85
2021/05/01 11:24:36;;;;;;;14.45;10.68;;;17.70;77.50;;;;;;5013710;28;20391;-86
2021/05/01 11:30:27;;;;;;;22.77;16.15;;;17.70;76.40;;;;;;5014415;28;20033;-87
2021/05/01 11:36:19;;;;;;;16.52;10.52;;;17.30;75.70;;;;;;5015882;28;20096;-86
2021/05/01 11:42:08;;;;;;;17.58;11.27;;;17.20;77.00;;;;;;5021885;28;20029;-87
2021/05/01 11:48:03;;;;;;;15.05;10.48;;;17.60;78.20;;;;;;5018506;28;20041;-86
2021/05/01 11:54:01;;;;;;;15.55;10.27;;;17.80;77.70;;;;;;5018756;28;20113;-84
2021/05/01 12:03:55;;;;;;;16.63;10.60;;;17.70;75.40;;;;;;5017198;28;20092;-85
2021/05/01 12:09:47;;;;;;;15.32;9.93;;;17.50;75.70;;;;;;5017031;28;20053;-85
2021/05/01 12:15:46;;;;;;;13.85;8.88;;;17.30;75.00;;;;;;5023201;28;20060;-86
2021/05/01 12:21:43;;;;;;;13.00;7.95;;;17.40;75.70;;;;;;5017648;28;20501;-86
2021/05/01 12:27:53;;;;;;;13.90;8.50;;;17.40;75.40;;;;;;5016868;28;20036;-88
2021/05/01 12:33:43;;;;;;;13.85;8.70;;;17.50;75.00;;;;;;5016549;28;20041;-88
2021/05/01 12:39:41;;;;;;;13.73;8.10;;;17.20;73.80;;;;;;5016015;28;20089;-88
2021/05/01 12:45:36;;;;;;;13.23;8.45;;;17.00;73.50;;;;;;5016071;28;20153;-88
2021/05/01 12:52:00;;;;;;;13.65;8.32;;;16.90;74.30;;;;;;5016103;28;20541;-88
2021/05/01 12:57:48;;;;;;;14.18;9.25;;;16.90;74.80;;;;;;4968301;28;20442;-88
2021/05/01 13:04:15;;;;;;;13.63;8.10;;;17.00;75.00;;;;;;4996310;28;20045;-87
2021/05/01 13:10:05;;;;;;;13.15;7.93;;;17.20;75.20;;;;;;4996596;28;20077;-90
2021/05/01 13:16:03;;;;;;;13.38;7.72;;;17.40;74.80;;;;;;4995932;28;20097;-89
2021/05/01 13:22:44;;;;;;;13.25;7.40;;;17.30;73.60;;;;;;4995720;28;20059;-88
2021/05/01 13:28:36;;;;;;;12.73;7.20;;;17.20;73.40;;;;;;4944013;28;20521;-87
2021/05/01 13:34:25;;;;;;;13.73;7.75;;;17.00;73.70;;;;;;4995562;28;20068;-85
2021/05/01 13:40:23;;;;;;;13.25;7.07;;;17.00;74.20;;;;;;4995226;28;20045;-86
2021/05/01 13:46:11;;;;;;;13.02;7.95;;;17.00;73.80;;;;;;4995265;28;20033;-86
2021/05/01 13:52:03;;;;;;;23.33;11.48;;;17.10;74.50;;;;;;4995381;28;20112;-85
2021/05/01 13:57:58;;;;;;;14.82;8.48;;;17.10;74.00;;;;;;4995236;28;20089;-86
2021/05/01 14:03:47;;;;;;;13.27;7.22;;;17.10;74.30;;;;;;5014621;28;20409;-86
2021/05/01 14:09:36;;;;;;;13.55;8.15;;;17.20;74.20;;;;;;5014709;28;20125;-87
2021/05/01 14:15:38;;;;;;;12.52;7.65;;;17.00;73.40;;;;;;5014546;28;20033;-88
2021/05/01 14:21:30;;;;;;;11.82;7.35;;;17.00;74.00;;;;;;5014400;28;20041;-88
2021/05/01 14:33:59;;;;;;;12.70;7.95;;;17.10;73.60;;;;;;5014241;28;20085;-87
2021/05/01 14:39:52;;;;;;;12.27;7.35;;;16.90;74.50;;;;;;5014225;28;20613;-87
2021/05/01 14:45:41;;;;;;;12.65;7.55;;;17.10;74.20;;;;;;5014471;28;20089;-87
2021/05/01 14:51:31;;;;;;;13.35;7.47;;;17.20;73.80;;;;;;5015669;28;20072;-87
2021/05/01 14:57:30;;;;;;;13.60;7.10;;;17.10;74.10;;;;;;5016372;28;20137;-88
2021/05/01 15:03:41;;;;;;;13.40;7.80;;;17.10;74.30;;;;;;5013871;28;20105;-87
2021/05/01 15:10:03;;;;;;;13.82;8.10;;;17.20;73.70;;;;;;5013689;28;20095;-88
2021/05/01 15:15:58;;;;;;;12.77;7.45;;;17.10;73.60;;;;;;5013404;28;20028;-87
2021/05/01 15:22:00;;;;;;;12.45;7.72;;;17.00;73.30;;;;;;5013401;28;20113;-87
2021/05/01 15:27:49;;;;;;;16.45;9.93;;;16.80;73.00;;;;;;5017925;28;20033;-90
2021/05/01 15:33:40;;;;;;;12.18;7.60;;;16.60;73.60;;;;;;5017812;28;20041;-88
2021/05/01 15:39:29;;;;;;;14.15;7.47;;;16.70;73.70;;;;;;5017285;28;20045;-89
2021/05/01 15:45:23;;;;;;;15.68;7.95;;;16.70;73.90;;;;;;5017341;28;20050;-89
2021/05/01 15:57:43;;;;;;;11.95;7.00;;;16.60;73.80;;;;;;5032606;28;20077;-87
2021/05/01 16:03:33;;;;;;;13.55;7.45;;;16.50;73.20;;;;;;5004891;28;20041;-89
2021/05/01 16:09:23;;;;;;;14.45;8.48;;;16.30;73.50;;;;;;4999121;28;20029;-89
2021/05/01 16:15:16;;;;;;;13.45;8.05;;;16.00;73.40;;;;;;4996935;28;20494;-87
2021/05/01 16:21:07;;;;;;;12.40;7.78;;;16.00;73.70;;;;;;4997132;28;20141;-87
2021/05/01 16:26:57;;;;;;;14.20;8.48;;;15.70;72.70;;;;;;4996978;28;20100;-86
2021/05/01 16:32:45;;;;;;;14.23;8.85;;;15.50;73.30;;;;;;4997058;28;20045;-86
2021/05/01 16:38:33;;;;;;;16.55;8.70;;;15.40;73.40;;;;;;4996593;28;20088;-86
2021/05/01 16:44:22;;;;;;;14.10;8.88;;;15.30;73.80;;;;;;4996464;28;20025;-85
2021/05/01 16:50:11;;;;;;;15.85;8.60;;;15.20;73.70;;;;;;4996417;28;20534;-85
2021/05/01 16:56:00;;;;;;;15.27;8.88;;;15.00;73.40;;;;;;4996816;28;20064;-87
2021/05/01 17:05:40;;;;;;;14.23;7.85;;;14.80;73.80;;;;;;5016065;28;20609;-86
2021/05/01 17:11:28;;;;;;;15.10;9.38;;;14.60;73.50;;;;;;5016006;28;20496;-86
2021/05/01 17:17:16;;;;;;;15.18;8.88;;;14.40;73.30;;;;;;5015844;28;20033;-85
2021/05/01 17:23:06;;;;;;;13.85;8.32;;;14.00;73.10;;;;;;5015881;28;20045;-85
2021/05/01 17:28:54;;;;;;;15.60;9.90;;;13.80;73.70;;;;;;5015835;28;20582;-86
2021/05/01 17:34:43;;;;;;;13.48;8.32;;;13.70;73.40;;;;;;5018834;28;20040;-86
2021/05/01 17:40:31;;;;;;;13.35;8.27;;;13.40;73.50;;;;;;5016886;28;20049;-83
2021/05/01 17:46:20;;;;;;;13.43;8.15;;;13.20;73.50;;;;;;5015053;28;20037;-84
2021/05/01 17:52:13;;;;;;;13.18;7.75;;;13.10;74.00;;;;;;5015278;28;20029;-84
2021/05/01 17:58:02;;;;;;;14.32;8.55;;;12.90;73.90;;;;;;5014780;28;20064;-84
2021/05/01 18:07:45;;;;;;;16.83;11.15;;;12.70;74.20;;;;;;5014926;28;20505;-83
2021/05/01 18:13:35;;;;;;;14.07;8.02;;;12.50;74.10;;;;;;5014555;28;20037;-84
2021/05/01 18:19:24;;;;;;;13.45;8.23;;;12.40;74.50;;;;;;5014208;28;20045;-85
2021/05/01 18:25:14;;;;;;;14.50;7.88;;;12.20;74.20;;;;;;5014454;28;20104;-85
2021/05/01 18:31:03;;;;;;;13.95;7.07;;;12.10;74.30;;;;;;5014476;28;20501;-84
2021/05/01 18:36:52;;;;;;;13.98;8.30;;;12.00;74.60;;;;;;5014630;28;20481;-83
2021/05/01 18:42:45;;;;;;;14.43;8.13;;;11.80;74.20;;;;;;5014188;28;20037;-84
2021/05/01 18:48:34;;;;;;;17.10;8.90;;;11.70;75.00;;;;;;5014079;28;20105;-85
2021/05/01 18:54:23;;;;;;;15.98;9.65;;;11.70;75.00;;;;;;5014100;28;20101;-84
2021/05/01 19:00:12;;;;;;;14.35;9.18;;;11.80;75.20;;;;;;5013676;28;20089;-85
2021/05/01 19:09:57;;;;;;;13.80;8.18;;;11.50;74.90;;;;;;5014105;28;20072;-85
2021/05/01 19:15:47;;;;;;;18.25;11.40;;;11.40;75.30;;;;;;5014360;28;20445;-83
2021/05/01 19:21:35;;;;;;;19.05;11.82;;;11.30;75.40;;;;;;5014238;28;20033;-83
2021/05/01 19:27:24;;;;;;;18.98;10.98;;;11.30;75.40;;;;;;5013824;28;20502;-85
2021/05/01 19:34:08;;;;;;;19.90;11.48;;;11.20;75.80;;;;;;5013724;28;20037;-88
2021/05/01 19:47:10;;;;;;;20.10;11.95;;;11.10;75.60;;;;;;4846291;28;20468;-89
2021/05/01 20:28:34;;;;;;;20.25;12.70;;;10.80;76.60;;;;;;4956031;29;20046;-85
2021/05/01 20:40:53;;;;;;;21.10;13.77;;;10.70;76.80;;;;;;4959204;28;20067;-90
2021/05/01 20:46:41;;;;;;;14.60;8.25;;;10.70;77.10;;;;;;5016425;28;20422;-87
2021/05/01 20:52:29;;;;;;;19.30;11.63;;;10.70;76.90;;;;;;5016272;28;20088;-87
2021/05/01 20:58:24;;;;;;;21.25;12.75;;;10.60;76.90;;;;;;5016478;28;20108;-87
2021/05/01 21:04:23;;;;;;;18.38;11.23;;;10.50;76.90;;;;;;5015759;28;20080;-86
2021/05/01 21:10:15;;;;;;;20.50;12.95;;;10.50;77.10;;;;;;5015507;28;20025;-87
2021/05/01 21:16:09;;;;;;;21.13;13.60;;;10.50;77.10;;;;;;5015578;28;20424;-87
2021/05/01 21:21:57;;;;;;;22.95;13.75;;;10.40;77.50;;;;;;5015067;28;20065;-85
2021/05/01 21:31:49;;;;;;;22.80;14.02;;;10.40;77.50;;;;;;5015452;28;20528;-87
2021/05/01 21:37:37;;;;;;;22.70;14.30;;;10.40;77.70;;;;;;5015394;28;20053;-87
2021/05/01 21:43:25;;;;;;;22.65;14.05;;;10.40;77.80;;;;;;5015488;28;20041;-89
2021/05/01 21:49:16;;;;;;;22.85;13.27;;;10.40;78.10;;;;;;5015394;28;20084;-89
2021/05/01 22:01:05;;;;;;;17.23;11.00;;;10.20;78.00;;;;;;5034759;28;20068;-88
2021/05/01 22:06:55;;;;;;;22.05;13.30;;;10.20;77.90;;;;;;5034915;28;20172;-88
2021/05/01 22:12:43;;;;;;;21.05;13.18;;;10.20;78.40;;;;;;5034698;28;20032;-88
2021/05/01 22:18:34;;;;;;;20.80;12.93;;;10.10;78.10;;;;;;5034348;28;20033;-88
2021/05/01 22:24:29;;;;;;;25.75;15.65;;;10.20;78.80;;;;;;5034356;28;20440;-88
2021/05/01 22:30:17;;;;;;;19.23;12.20;;;10.10;78.30;;;;;;5033937;28;20036;-89
2021/05/01 22:36:08;;;;;;;23.30;14.82;;;10.10;78.70;;;;;;5034214;28;20040;-88
2021/05/01 22:41:57;;;;;;;19.88;12.70;;;10.10;78.70;;;;;;5034205;28;20040;-87
2021/05/01 22:47:47;;;;;;;20.40;13.05;;;10.10;78.90;;;;;;5034120;28;20091;-90
2021/05/01 22:53:38;;;;;;;17.20;9.75;;;10.00;78.80;;;;;;5036140;28;20087;-90
2021/05/01 23:03:26;;;;;;;19.00;11.18;;;10.00;78.90;;;;;;5034082;28;20087;-88
2021/05/01 23:09:15;;;;;;;21.90;14.18;;;9.90;78.80;;;;;;5033884;28;20048;-88
2021/05/01 23:15:04;;;;;;;21.48;13.20;;;9.80;78.90;;;;;;5033543;28;20060;-89
2021/05/01 23:20:53;;;;;;;19.42;12.55;;;9.80;79.20;;;;;;5033817;28;20037;-89
2021/05/01 23:26:43;;;;;;;23.20;13.10;;;9.80;79.20;;;;;;5033639;28;20048;-90
2021/05/01 23:32:32;;;;;;;21.08;12.68;;;9.80;79.40;;;;;;5033538;28;20036;-89
2021/05/01 23:38:21;;;;;;;20.73;12.32;;;9.80;79.60;;;;;;5033514;28;20043;-89
2021/05/01 23:44:12;;;;;;;14.75;8.05;;;9.90;79.50;;;;;;5035452;28;20033;-89
2021/05/01 23:50:09;;;;;;;19.05;11.98;;;9.70;79.40;;;;;;5037419;28;20033;-90
2021/05/01 23:56:05;;;;;;;19.30;11.40;;;9.70;79.70;;;;;;5037308;28;20495;-90
